sensor_id;sensor_type;location;lat;lon;timestamp;P1;durP1;ratioP1;P2;durP2;ratioP2
24745;SDS011;12845;52.042;6.838;2023-04-15T00:01:28;7.90;;;6.10;;
24745;SDS011;12845;52.042;6.838;2023-04-15T00:03:54;11.70;;;6.47;;
24745;SDS011;12845;52.042;6.838;2023-04-15T00:06:22;10.38;;;6.10;;
24745;SDS011;12845;52.042;6.838;2023-04-15T00:08:48;12.93;;;6.43;;
24745;SDS011;12845;52.042;6.838;2023-04-15T00:11:16;8.82;;;6.15;;
24745;SDS011;12845;52.042;6.838;2023-04-15T00:13:42;12.38;;;6.38;;
24745;SDS011;12845;52.042;6.838;2023-04-15T00:16:08;13.98;;;6.75;;
24745;SDS011;12845;52.042;6.838;2023-04-15T00:18:34;12.10;;;6.18;;
24745;SDS011;12845;52.042;6.838;2023-04-15T00:21:00;13.45;;;6.90;;
24745;SDS011;12845;52.042;6.838;2023-04-15T00:23:26;11.27;;;6.53;;
24745;SDS011;12845;52.042;6.838;2023-04-15T00:25:52;9.30;;;6.32;;
24745;SDS011;12845;52.042;6.838;2023-04-15T00:28:17;11.63;;;6.97;;
24745;SDS011;12845;52.042;6.838;2023-04-15T00:30:43;10.93;;;7.05;;
24745;SDS011;12845;52.042;6.838;2023-04-15T00:33:08;10.00;;;7.13;;
24745;SDS011;12845;52.042;6.838;2023-04-15T00:35:34;12.48;;;7.38;;
24745;SDS011;12845;52.042;6.838;2023-04-15T00:38:01;11.57;;;7.35;;
24745;SDS011;12845;52.042;6.838;2023-04-15T00:40:27;11.38;;;7.38;;
24745;SDS011;12845;52.042;6.838;2023-04-15T00:42:52;10.15;;;7.05;;
24745;SDS011;12845;52.042;6.838;2023-04-15T00:45:18;12.55;;;7.50;;
24745;SDS011;12845;52.042;6.838;2023-04-15T00:47:43;10.93;;;7.10;;
24745;SDS011;12845;52.042;6.838;2023-04-15T00:50:10;9.57;;;7.30;;
24745;SDS011;12845;52.042;6.838;2023-04-15T00:52:36;12.32;;;7.70;;
24745;SDS011;12845;52.042;6.838;2023-04-15T00:55:03;11.75;;;7.88;;
24745;SDS011;12845;52.042;6.838;2023-04-15T00:57:29;10.55;;;6.90;;
24745;SDS011;12845;52.042;6.838;2023-04-15T00:59:55;10.77;;;7.53;;
24745;SDS011;12845;52.042;6.838;2023-04-15T01:02:22;11.98;;;7.82;;
24745;SDS011;12845;52.042;6.838;2023-04-15T01:04:47;10.27;;;7.20;;
24745;SDS011;12845;52.042;6.838;2023-04-15T01:07:13;12.52;;;8.05;;
24745;SDS011;12845;52.042;6.838;2023-04-15T01:09:39;12.07;;;7.25;;
24745;SDS011;12845;52.042;6.838;2023-04-15T01:12:05;12.85;;;7.93;;
24745;SDS011;12845;52.042;6.838;2023-04-15T01:14:32;10.30;;;7.40;;
24745;SDS011;12845;52.042;6.838;2023-04-15T01:16:58;12.40;;;8.75;;
24745;SDS011;12845;52.042;6.838;2023-04-15T01:19:23;11.73;;;8.20;;
24745;SDS011;12845;52.042;6.838;2023-04-15T01:21:49;11.20;;;7.80;;
24745;SDS011;12845;52.042;6.838;2023-04-15T01:24:14;13.88;;;8.70;;
24745;SDS011;12845;52.042;6.838;2023-04-15T01:26:42;13.70;;;8.70;;
24745;SDS011;12845;52.042;6.838;2023-04-15T01:29:07;12.25;;;8.43;;
24745;SDS011;12845;52.042;6.838;2023-04-15T01:31:33;13.65;;;8.85;;
24745;SDS011;12845;52.042;6.838;2023-04-15T01:33:58;13.20;;;8.43;;
24745;SDS011;12845;52.042;6.838;2023-04-15T01:36:24;15.95;;;9.20;;
24745;SDS011;12845;52.042;6.838;2023-04-15T01:38:49;10.98;;;8.13;;
24745;SDS011;12845;52.042;6.838;2023-04-15T01:41:15;14.73;;;8.80;;
24745;SDS011;12845;52.042;6.838;2023-04-15T01:43:41;13.77;;;8.80;;
24745;SDS011;12845;52.042;6.838;2023-04-15T01:46:06;13.52;;;8.57;;
24745;SDS011;12845;52.042;6.838;2023-04-15T01:48:32;13.43;;;9.45;;
24745;SDS011;12845;52.042;6.838;2023-04-15T01:50:58;13.23;;;8.52;;
24745;SDS011;12845;52.042;6.838;2023-04-15T01:53:24;13.02;;;8.77;;
24745;SDS011;12845;52.042;6.838;2023-04-15T01:55:50;15.35;;;9.27;;
24745;SDS011;12845;52.042;6.838;2023-04-15T01:58:16;12.80;;;8.75;;
24745;SDS011;12845;52.042;6.838;2023-04-15T02:00:41;14.05;;;9.63;;
24745;SDS011;12845;52.042;6.838;2023-04-15T02:03:07;13.98;;;8.65;;
24745;SDS011;12845;52.042;6.838;2023-04-15T02:05:33;13.73;;;8.77;;
24745;SDS011;12845;52.042;6.838;2023-04-15T02:07:59;15.43;;;8.57;;
24745;SDS011;12845;52.042;6.838;2023-04-15T02:10:24;14.80;;;9.52;;
24745;SDS011;12845;52.042;6.838;2023-04-15T02:12:50;12.73;;;8.48;;
24745;SDS011;12845;52.042;6.838;2023-04-15T02:15:15;15.05;;;9.38;;
24745;SDS011;12845;52.042;6.838;2023-04-15T02:17:41;13.75;;;8.75;;
24745;SDS011;12845;52.042;6.838;2023-04-15T02:20:09;13.30;;;8.95;;
24745;SDS011;12845;52.042;6.838;2023-04-15T02:22:35;13.45;;;8.55;;
24745;SDS011;12845;52.042;6.838;2023-04-15T02:25:01;13.65;;;8.70;;
24745;SDS011;12845;52.042;6.838;2023-04-15T02:27:27;13.00;;;9.18;;
24745;SDS011;12845;52.042;6.838;2023-04-15T02:29:53;15.35;;;10.05;;
24745;SDS011;12845;52.042;6.838;2023-04-15T02:32:18;17.50;;;9.80;;
24745;SDS011;12845;52.042;6.838;2023-04-15T02:34:44;14.63;;;9.55;;
24745;SDS011;12845;52.042;6.838;2023-04-15T02:37:10;12.40;;;9.00;;
24745;SDS011;12845;52.042;6.838;2023-04-15T02:39:37;15.55;;;10.18;;
24745;SDS011;12845;52.042;6.838;2023-04-15T02:42:03;14.95;;;9.77;;
24745;SDS011;12845;52.042;6.838;2023-04-15T02:44:29;17.08;;;9.35;;
24745;SDS011;12845;52.042;6.838;2023-04-15T02:46:56;14.80;;;10.40;;
24745;SDS011;12845;52.042;6.838;2023-04-15T02:49:22;14.93;;;10.25;;
24745;SDS011;12845;52.042;6.838;2023-04-15T02:51:48;15.68;;;10.63;;
24745;SDS011;12845;52.042;6.838;2023-04-15T02:54:20;14.95;;;10.85;;
24745;SDS011;12845;52.042;6.838;2023-04-15T02:56:49;16.05;;;11.15;;
24745;SDS011;12845;52.042;6.838;2023-04-15T02:59:16;15.75;;;10.82;;
24745;SDS011;12845;52.042;6.838;2023-04-15T03:01:41;16.52;;;10.77;;
24745;SDS011;12845;52.042;6.838;2023-04-15T03:04:07;15.90;;;11.70;;
24745;SDS011;12845;52.042;6.838;2023-04-15T03:06:33;17.38;;;11.15;;
24745;SDS011;12845;52.042;6.838;2023-04-15T03:08:59;15.43;;;10.48;;
24745;SDS011;12845;52.042;6.838;2023-04-15T03:11:24;17.17;;;10.75;;
24745;SDS011;12845;52.042;6.838;2023-04-15T03:13:51;17.25;;;10.88;;
24745;SDS011;12845;52.042;6.838;2023-04-15T03:16:16;16.27;;;10.55;;
24745;SDS011;12845;52.042;6.838;2023-04-15T03:18:42;16.15;;;10.43;;
24745;SDS011;12845;52.042;6.838;2023-04-15T03:21:07;14.32;;;10.35;;
24745;SDS011;12845;52.042;6.838;2023-04-15T03:23:33;15.93;;;10.82;;
24745;SDS011;12845;52.042;6.838;2023-04-15T03:26:00;14.73;;;10.10;;
24745;SDS011;12845;52.042;6.838;2023-04-15T03:28:26;15.25;;;10.27;;
24745;SDS011;12845;52.042;6.838;2023-04-15T03:30:53;16.95;;;10.73;;
24745;SDS011;12845;52.042;6.838;2023-04-15T03:33:18;17.08;;;10.85;;
24745;SDS011;12845;52.042;6.838;2023-04-15T03:35:44;15.25;;;10.93;;
24745;SDS011;12845;52.042;6.838;2023-04-15T03:38:09;19.13;;;11.25;;
24745;SDS011;12845;52.042;6.838;2023-04-15T03:40:35;17.77;;;11.20;;
24745;SDS011;12845;52.042;6.838;2023-04-15T03:43:00;18.05;;;11.65;;
24745;SDS011;12845;52.042;6.838;2023-04-15T03:45:26;16.00;;;11.07;;
24745;SDS011;12845;52.042;6.838;2023-04-15T03:47:51;17.15;;;11.40;;
24745;SDS011;12845;52.042;6.838;2023-04-15T03:50:16;15.00;;;10.93;;
24745;SDS011;12845;52.042;6.838;2023-04-15T03:52:43;17.92;;;10.88;;
24745;SDS011;12845;52.042;6.838;2023-04-15T03:55:08;17.00;;;11.68;;
24745;SDS011;12845;52.042;6.838;2023-04-15T03:57:34;16.27;;;10.85;;
24745;SDS011;12845;52.042;6.838;2023-04-15T04:00:03;20.45;;;11.63;;
24745;SDS011;12845;52.042;6.838;2023-04-15T04:02:30;17.23;;;11.07;;
24745;SDS011;12845;52.042;6.838;2023-04-15T04:04:55;19.77;;;11.70;;
24745;SDS011;12845;52.042;6.838;2023-04-15T04:07:22;19.58;;;11.98;;
24745;SDS011;12845;52.042;6.838;2023-04-15T04:09:48;18.17;;;11.85;;
24745;SDS011;12845;52.042;6.838;2023-04-15T04:12:13;17.13;;;11.82;;
24745;SDS011;12845;52.042;6.838;2023-04-15T04:14:38;17.25;;;12.23;;
24745;SDS011;12845;52.042;6.838;2023-04-15T04:17:04;20.67;;;13.98;;
24745;SDS011;12845;52.042;6.838;2023-04-15T04:19:29;22.38;;;13.10;;
24745;SDS011;12845;52.042;6.838;2023-04-15T04:21:55;22.58;;;12.82;;
24745;SDS011;12845;52.042;6.838;2023-04-15T04:24:20;20.63;;;13.27;;
24745;SDS011;12845;52.042;6.838;2023-04-15T04:26:45;26.17;;;15.18;;
24745;SDS011;12845;52.042;6.838;2023-04-15T04:29:11;27.98;;;13.80;;
24745;SDS011;12845;52.042;6.838;2023-04-15T04:31:36;28.70;;;15.27;;
24745;SDS011;12845;52.042;6.838;2023-04-15T04:34:02;32.45;;;16.73;;
24745;SDS011;12845;52.042;6.838;2023-04-15T04:36:27;34.35;;;15.77;;
24745;SDS011;12845;52.042;6.838;2023-04-15T04:38:52;32.92;;;16.13;;
24745;SDS011;12845;52.042;6.838;2023-04-15T04:41:18;30.73;;;15.57;;
24745;SDS011;12845;52.042;6.838;2023-04-15T04:43:43;31.67;;;15.02;;
24745;SDS011;12845;52.042;6.838;2023-04-15T04:46:08;30.25;;;14.77;;
24745;SDS011;12845;52.042;6.838;2023-04-15T04:48:34;25.00;;;14.05;;
24745;SDS011;12845;52.042;6.838;2023-04-15T04:51:00;24.05;;;15.25;;
24745;SDS011;12845;52.042;6.838;2023-04-15T04:53:25;24.60;;;14.70;;
24745;SDS011;12845;52.042;6.838;2023-04-15T04:55:51;31.17;;;15.20;;
24745;SDS011;12845;52.042;6.838;2023-04-15T04:58:17;26.88;;;14.25;;
24745;SDS011;12845;52.042;6.838;2023-04-15T05:00:42;25.23;;;14.63;;
24745;SDS011;12845;52.042;6.838;2023-04-15T05:03:08;22.55;;;14.85;;
24745;SDS011;12845;52.042;6.838;2023-04-15T05:05:33;23.42;;;15.25;;
24745;SDS011;12845;52.042;6.838;2023-04-15T05:08:00;25.60;;;14.98;;
24745;SDS011;12845;52.042;6.838;2023-04-15T05:10:26;24.98;;;16.00;;
24745;SDS011;12845;52.042;6.838;2023-04-15T05:12:51;26.48;;;15.57;;
24745;SDS011;12845;52.042;6.838;2023-04-15T05:15:17;25.55;;;15.88;;
24745;SDS011;12845;52.042;6.838;2023-04-15T05:17:42;25.60;;;15.52;;
24745;SDS011;12845;52.042;6.838;2023-04-15T05:20:08;22.42;;;14.88;;
24745;SDS011;12845;52.042;6.838;2023-04-15T05:22:34;25.33;;;16.75;;
24745;SDS011;12845;52.042;6.838;2023-04-15T05:25:00;25.77;;;15.75;;
24745;SDS011;12845;52.042;6.838;2023-04-15T05:27:25;25.55;;;16.10;;
24745;SDS011;12845;52.042;6.838;2023-04-15T05:29:50;24.75;;;16.23;;
24745;SDS011;12845;52.042;6.838;2023-04-15T05:32:16;25.98;;;17.08;;
24745;SDS011;12845;52.042;6.838;2023-04-15T05:34:41;26.30;;;16.67;;
24745;SDS011;12845;52.042;6.838;2023-04-15T05:37:07;26.35;;;16.98;;
24745;SDS011;12845;52.042;6.838;2023-04-15T05:39:32;27.85;;;18.77;;
24745;SDS011;12845;52.042;6.838;2023-04-15T05:41:58;25.67;;;16.65;;
24745;SDS011;12845;52.042;6.838;2023-04-15T05:44:23;31.38;;;18.38;;
24745;SDS011;12845;52.042;6.838;2023-04-15T05:46:49;28.55;;;18.38;;
24745;SDS011;12845;52.042;6.838;2023-04-15T05:49:15;32.90;;;19.67;;
24745;SDS011;12845;52.042;6.838;2023-04-15T05:51:40;34.20;;;20.05;;
24745;SDS011;12845;52.042;6.838;2023-04-15T05:54:06;35.20;;;22.67;;
24745;SDS011;12845;52.042;6.838;2023-04-15T05:56:31;28.67;;;18.25;;
24745;SDS011;12845;52.042;6.838;2023-04-15T05:58:56;27.10;;;18.13;;
24745;SDS011;12845;52.042;6.838;2023-04-15T06:01:22;26.00;;;16.83;;
24745;SDS011;12845;52.042;6.838;2023-04-15T06:03:48;26.42;;;16.77;;
24745;SDS011;12845;52.042;6.838;2023-04-15T06:06:13;25.65;;;17.77;;
24745;SDS011;12845;52.042;6.838;2023-04-15T06:08:39;26.70;;;18.00;;
24745;SDS011;12845;52.042;6.838;2023-04-15T06:11:05;27.58;;;17.73;;
24745;SDS011;12845;52.042;6.838;2023-04-15T06:13:30;25.75;;;16.92;;
24745;SDS011;12845;52.042;6.838;2023-04-15T06:15:55;27.63;;;17.00;;
24745;SDS011;12845;52.042;6.838;2023-04-15T06:18:21;26.65;;;16.58;;
24745;SDS011;12845;52.042;6.838;2023-04-15T06:20:46;26.45;;;18.08;;
24745;SDS011;12845;52.042;6.838;2023-04-15T06:23:12;30.00;;;17.50;;
24745;SDS011;12845;52.042;6.838;2023-04-15T06:25:37;28.63;;;17.15;;
24745;SDS011;12845;52.042;6.838;2023-04-15T06:28:02;27.60;;;17.92;;
24745;SDS011;12845;52.042;6.838;2023-04-15T06:30:28;27.85;;;18.15;;
24745;SDS011;12845;52.042;6.838;2023-04-15T06:32:53;33.03;;;19.65;;
24745;SDS011;12845;52.042;6.838;2023-04-15T06:35:19;30.02;;;17.92;;
24745;SDS011;12845;52.042;6.838;2023-04-15T06:37:45;34.38;;;19.25;;
24745;SDS011;12845;52.042;6.838;2023-04-15T06:40:10;26.15;;;17.67;;
24745;SDS011;12845;52.042;6.838;2023-04-15T06:42:36;31.58;;;19.38;;
24745;SDS011;12845;52.042;6.838;2023-04-15T06:45:02;30.95;;;18.08;;
24745;SDS011;12845;52.042;6.838;2023-04-15T06:47:28;26.70;;;17.98;;
24745;SDS011;12845;52.042;6.838;2023-04-15T06:49:53;28.77;;;18.55;;
24745;SDS011;12845;52.042;6.838;2023-04-15T06:52:18;28.30;;;17.50;;
24745;SDS011;12845;52.042;6.838;2023-04-15T06:54:44;29.10;;;16.92;;
24745;SDS011;12845;52.042;6.838;2023-04-15T06:57:09;26.55;;;17.30;;
24745;SDS011;12845;52.042;6.838;2023-04-15T06:59:35;28.50;;;17.83;;
24745;SDS011;12845;52.042;6.838;2023-04-15T07:02:00;31.92;;;18.30;;
24745;SDS011;12845;52.042;6.838;2023-04-15T07:04:26;24.35;;;15.82;;
24745;SDS011;12845;52.042;6.838;2023-04-15T07:06:52;25.05;;;16.02;;
24745;SDS011;12845;52.042;6.838;2023-04-15T07:09:19;24.77;;;16.17;;
24745;SDS011;12845;52.042;6.838;2023-04-15T07:11:45;23.52;;;14.55;;
24745;SDS011;12845;52.042;6.838;2023-04-15T07:14:10;22.02;;;13.52;;
24745;SDS011;12845;52.042;6.838;2023-04-15T07:16:35;23.80;;;15.35;;
24745;SDS011;12845;52.042;6.838;2023-04-15T07:19:01;21.73;;;14.75;;
24745;SDS011;12845;52.042;6.838;2023-04-15T07:21:26;22.15;;;14.05;;
24745;SDS011;12845;52.042;6.838;2023-04-15T07:23:52;19.48;;;13.70;;
24745;SDS011;12845;52.042;6.838;2023-04-15T07:26:17;21.98;;;13.10;;
24745;SDS011;12845;52.042;6.838;2023-04-15T07:28:42;21.00;;;13.68;;
24745;SDS011;12845;52.042;6.838;2023-04-15T07:31:10;18.73;;;12.43;;
24745;SDS011;12845;52.042;6.838;2023-04-15T07:33:36;18.38;;;12.18;;
24745;SDS011;12845;52.042;6.838;2023-04-15T07:36:01;19.83;;;12.85;;
24745;SDS011;12845;52.042;6.838;2023-04-15T07:38:27;19.23;;;13.52;;
24745;SDS011;12845;52.042;6.838;2023-04-15T07:40:52;21.05;;;13.55;;
24745;SDS011;12845;52.042;6.838;2023-04-15T07:43:18;23.77;;;14.10;;
24745;SDS011;12845;52.042;6.838;2023-04-15T07:45:45;19.42;;;13.27;;
24745;SDS011;12845;52.042;6.838;2023-04-15T07:48:10;20.92;;;14.00;;
24745;SDS011;12845;52.042;6.838;2023-04-15T07:50:35;21.10;;;13.60;;
24745;SDS011;12845;52.042;6.838;2023-04-15T07:53:01;21.48;;;14.63;;
24745;SDS011;12845;52.042;6.838;2023-04-15T07:55:26;24.05;;;15.18;;
24745;SDS011;12845;52.042;6.838;2023-04-15T07:57:52;22.40;;;13.68;;
24745;SDS011;12845;52.042;6.838;2023-04-15T08:00:17;21.42;;;13.20;;
24745;SDS011;12845;52.042;6.838;2023-04-15T08:02:42;19.85;;;13.65;;
24745;SDS011;12845;52.042;6.838;2023-04-15T08:05:08;21.80;;;13.02;;
24745;SDS011;12845;52.042;6.838;2023-04-15T08:07:35;18.13;;;12.80;;
24745;SDS011;12845;52.042;6.838;2023-04-15T08:10:01;18.95;;;12.43;;
24745;SDS011;12845;52.042;6.838;2023-04-15T08:12:26;17.45;;;12.05;;
24745;SDS011;12845;52.042;6.838;2023-04-15T08:14:52;17.92;;;11.70;;
24745;SDS011;12845;52.042;6.838;2023-04-15T08:17:19;16.35;;;10.65;;
24745;SDS011;12845;52.042;6.838;2023-04-15T08:19:44;16.80;;;10.65;;
24745;SDS011;12845;52.042;6.838;2023-04-15T08:22:09;15.05;;;9.60;;
24745;SDS011;12845;52.042;6.838;2023-04-15T08:24:36;14.85;;;10.50;;
24745;SDS011;12845;52.042;6.838;2023-04-15T08:27:01;15.68;;;10.30;;
24745;SDS011;12845;52.042;6.838;2023-04-15T08:29:28;16.27;;;10.00;;
24745;SDS011;12845;52.042;6.838;2023-04-15T08:31:54;14.48;;;10.15;;
24745;SDS011;12845;52.042;6.838;2023-04-15T08:34:19;16.52;;;9.93;;
24745;SDS011;12845;52.042;6.838;2023-04-15T08:36:45;13.57;;;9.60;;
24745;SDS011;12845;52.042;6.838;2023-04-15T08:39:10;17.60;;;11.18;;
24745;SDS011;12845;52.042;6.838;2023-04-15T08:41:45;16.38;;;10.93;;
24745;SDS011;12845;52.042;6.838;2023-04-15T08:44:12;18.00;;;11.30;;
24745;SDS011;12845;52.042;6.838;2023-04-15T08:46:38;15.73;;;10.98;;
24745;SDS011;12845;52.042;6.838;2023-04-15T08:49:06;15.07;;;11.25;;
24745;SDS011;12845;52.042;6.838;2023-04-15T08:51:36;18.92;;;11.32;;
24745;SDS011;12845;52.042;6.838;2023-04-15T08:54:02;16.88;;;11.13;;
24745;SDS011;12845;52.042;6.838;2023-04-15T08:56:29;14.85;;;10.40;;
24745;SDS011;12845;52.042;6.838;2023-04-15T08:58:56;16.52;;;10.25;;
24745;SDS011;12845;52.042;6.838;2023-04-15T09:01:22;16.23;;;10.68;;
24745;SDS011;12845;52.042;6.838;2023-04-15T09:03:48;15.55;;;10.48;;
24745;SDS011;12845;52.042;6.838;2023-04-15T09:06:19;14.95;;;10.10;;
24745;SDS011;12845;52.042;6.838;2023-04-15T09:08:45;16.10;;;10.35;;
24745;SDS011;12845;52.042;6.838;2023-04-15T09:11:10;15.38;;;10.38;;
24745;SDS011;12845;52.042;6.838;2023-04-15T09:13:36;14.23;;;10.05;;
24745;SDS011;12845;52.042;6.838;2023-04-15T09:16:02;13.73;;;9.43;;
24745;SDS011;12845;52.042;6.838;2023-04-15T09:18:30;14.77;;;10.20;;
24745;SDS011;12845;52.042;6.838;2023-04-15T09:21:06;12.65;;;8.98;;
24745;SDS011;12845;52.042;6.838;2023-04-15T09:23:35;14.88;;;9.30;;
24745;SDS011;12845;52.042;6.838;2023-04-15T09:26:02;13.20;;;8.95;;
24745;SDS011;12845;52.042;6.838;2023-04-15T09:28:28;13.35;;;9.40;;
24745;SDS011;12845;52.042;6.838;2023-04-15T09:30:57;12.43;;;8.35;;
24745;SDS011;12845;52.042;6.838;2023-04-15T09:33:23;12.57;;;8.77;;
24745;SDS011;12845;52.042;6.838;2023-04-15T09:38:23;10.70;;;7.60;;
24745;SDS011;12845;52.042;6.838;2023-04-15T09:40:48;11.60;;;7.85;;
24745;SDS011;12845;52.042;6.838;2023-04-15T09:43:14;11.38;;;8.05;;
24745;SDS011;12845;52.042;6.838;2023-04-15T09:45:48;9.57;;;6.57;;
24745;SDS011;12845;52.042;6.838;2023-04-15T09:48:16;11.18;;;7.05;;
24745;SDS011;12845;52.042;6.838;2023-04-15T09:50:45;11.98;;;7.13;;
24745;SDS011;12845;52.042;6.838;2023-04-15T09:53:17;10.23;;;7.18;;
24745;SDS011;12845;52.042;6.838;2023-04-15T09:55:44;10.52;;;6.80;;
24745;SDS011;12845;52.042;6.838;2023-04-15T09:58:17;12.05;;;6.70;;
24745;SDS011;12845;52.042;6.838;2023-04-15T10:00:44;10.77;;;7.00;;
24745;SDS011;12845;52.042;6.838;2023-04-15T10:03:11;9.85;;;5.65;;
24745;SDS011;12845;52.042;6.838;2023-04-15T10:05:38;10.25;;;7.22;;
24745;SDS011;12845;52.042;6.838;2023-04-15T10:08:04;10.20;;;6.30;;
24745;SDS011;12845;52.042;6.838;2023-04-15T10:10:29;8.23;;;6.13;;
24745;SDS011;12845;52.042;6.838;2023-04-15T10:12:57;8.18;;;6.00;;
24745;SDS011;12845;52.042;6.838;2023-04-15T10:15:22;10.30;;;5.63;;
24745;SDS011;12845;52.042;6.838;2023-04-15T10:17:49;8.02;;;5.68;;
24745;SDS011;12845;52.042;6.838;2023-04-15T10:20:15;7.07;;;5.10;;
24745;SDS011;12845;52.042;6.838;2023-04-15T10:22:43;7.07;;;5.05;;
24745;SDS011;12845;52.042;6.838;2023-04-15T10:25:09;7.10;;;4.60;;
24745;SDS011;12845;52.042;6.838;2023-04-15T10:27:36;6.85;;;4.65;;
24745;SDS011;12845;52.042;6.838;2023-04-15T10:30:03;7.30;;;4.63;;
24745;SDS011;12845;52.042;6.838;2023-04-15T10:32:30;10.23;;;7.20;;
24745;SDS011;12845;52.042;6.838;2023-04-15T10:34:55;7.43;;;5.28;;
24745;SDS011;12845;52.042;6.838;2023-04-15T10:37:24;6.82;;;4.68;;
24745;SDS011;12845;52.042;6.838;2023-04-15T10:40:12;16.52;;;9.68;;
24745;SDS011;12845;52.042;6.838;2023-04-15T10:42:55;9.40;;;5.25;;
24745;SDS011;12845;52.042;6.838;2023-04-15T10:45:21;71.60;;;30.55;;
24745;SDS011;12845;52.042;6.838;2023-04-15T10:47:51;22.63;;;10.52;;
24745;SDS011;12845;52.042;6.838;2023-04-15T10:50:19;41.00;;;16.58;;
24745;SDS011;12845;52.042;6.838;2023-04-15T10:52:45;24.63;;;11.38;;
24745;SDS011;12845;52.042;6.838;2023-04-15T10:55:14;16.98;;;8.82;;
24745;SDS011;12845;52.042;6.838;2023-04-15T10:57:43;8.35;;;5.32;;
24745;SDS011;12845;52.042;6.838;2023-04-15T11:00:13;16.02;;;8.10;;
24745;SDS011;12845;52.042;6.838;2023-04-15T11:05:09;9.38;;;5.35;;
24745;SDS011;12845;52.042;6.838;2023-04-15T11:12:58;13.15;;;8.48;;
24745;SDS011;12845;52.042;6.838;2023-04-15T11:15:40;7.65;;;5.20;;
24745;SDS011;12845;52.042;6.838;2023-04-15T11:18:13;6.22;;;4.22;;
24745;SDS011;12845;52.042;6.838;2023-04-15T11:20:47;7.95;;;4.53;;
24745;SDS011;12845;52.042;6.838;2023-04-15T11:25:51;7.53;;;4.75;;
24745;SDS011;12845;52.042;6.838;2023-04-15T11:28:19;7.70;;;4.82;;
24745;SDS011;12845;52.042;6.838;2023-04-15T11:30:44;8.35;;;4.60;;
24745;SDS011;12845;52.042;6.838;2023-04-15T11:33:10;6.97;;;4.47;;
24745;SDS011;12845;52.042;6.838;2023-04-15T11:35:36;6.00;;;3.60;;
24745;SDS011;12845;52.042;6.838;2023-04-15T11:38:07;6.95;;;4.03;;
24745;SDS011;12845;52.042;6.838;2023-04-15T11:40:34;11.98;;;6.22;;
24745;SDS011;12845;52.042;6.838;2023-04-15T11:43:06;6.07;;;3.85;;
24745;SDS011;12845;52.042;6.838;2023-04-15T11:45:34;5.05;;;3.70;;
24745;SDS011;12845;52.042;6.838;2023-04-15T11:48:11;10.98;;;5.85;;
24745;SDS011;12845;52.042;6.838;2023-04-15T11:50:37;7.30;;;4.43;;
24745;SDS011;12845;52.042;6.838;2023-04-15T11:53:05;8.95;;;4.55;;
24745;SDS011;12845;52.042;6.838;2023-04-15T11:55:43;7.93;;;5.57;;
24745;SDS011;12845;52.042;6.838;2023-04-15T12:00:47;8.98;;;5.10;;
24745;SDS011;12845;52.042;6.838;2023-04-15T12:11:26;6.30;;;4.28;;
24745;SDS011;12845;52.042;6.838;2023-04-15T12:16:22;7.20;;;4.40;;
24745;SDS011;12845;52.042;6.838;2023-04-15T12:18:52;7.50;;;4.95;;
24745;SDS011;12845;52.042;6.838;2023-04-15T12:21:22;6.53;;;4.22;;
24745;SDS011;12845;52.042;6.838;2023-04-15T12:23:51;5.68;;;4.13;;
24745;SDS011;12845;52.042;6.838;2023-04-15T12:26:24;5.30;;;3.40;;
24745;SDS011;12845;52.042;6.838;2023-04-15T12:28:53;9.63;;;6.47;;
24745;SDS011;12845;52.042;6.838;2023-04-15T12:31:28;8.98;;;6.50;;
24745;SDS011;12845;52.042;6.838;2023-04-15T12:33:56;5.68;;;3.65;;
24745;SDS011;12845;52.042;6.838;2023-04-15T12:36:22;5.78;;;3.78;;
24745;SDS011;12845;52.042;6.838;2023-04-15T12:38:48;5.50;;;3.10;;
24745;SDS011;12845;52.042;6.838;2023-04-15T12:41:14;9.88;;;5.13;;
24745;SDS011;12845;52.042;6.838;2023-04-15T12:43:39;6.25;;;3.90;;
24745;SDS011;12845;52.042;6.838;2023-04-15T12:46:04;10.05;;;3.88;;
24745;SDS011;12845;52.042;6.838;2023-04-15T12:48:32;6.32;;;4.38;;
24745;SDS011;12845;52.042;6.838;2023-04-15T12:50:58;8.32;;;4.07;;
24745;SDS011;12845;52.042;6.838;2023-04-15T12:53:23;10.73;;;5.20;;
24745;SDS011;12845;52.042;6.838;2023-04-15T12:55:49;11.15;;;6.03;;
24745;SDS011;12845;52.042;6.838;2023-04-15T12:58:14;8.98;;;5.07;;
24745;SDS011;12845;52.042;6.838;2023-04-15T13:00:39;13.60;;;7.80;;
24745;SDS011;12845;52.042;6.838;2023-04-15T13:03:05;5.95;;;3.85;;
24745;SDS011;12845;52.042;6.838;2023-04-15T13:05:30;6.68;;;4.18;;
24745;SDS011;12845;52.042;6.838;2023-04-15T13:07:56;7.35;;;3.50;;
24745;SDS011;12845;52.042;6.838;2023-04-15T13:10:21;7.00;;;4.28;;
24745;SDS011;12845;52.042;6.838;2023-04-15T13:12:50;11.98;;;6.75;;
24745;SDS011;12845;52.042;6.838;2023-04-15T13:15:17;7.65;;;4.82;;
24745;SDS011;12845;52.042;6.838;2023-04-15T13:17:45;8.82;;;5.35;;
24745;SDS011;12845;52.042;6.838;2023-04-15T13:20:10;5.60;;;3.58;;
24745;SDS011;12845;52.042;6.838;2023-04-15T13:22:36;7.80;;;3.92;;
24745;SDS011;12845;52.042;6.838;2023-04-15T13:25:01;7.85;;;5.30;;
24745;SDS011;12845;52.042;6.838;2023-04-15T13:27:27;13.48;;;9.52;;
24745;SDS011;12845;52.042;6.838;2023-04-15T13:29:53;5.05;;;3.30;;
24745;SDS011;12845;52.042;6.838;2023-04-15T13:32:18;8.68;;;5.90;;
24745;SDS011;12845;52.042;6.838;2023-04-15T13:34:44;6.45;;;4.80;;
24745;SDS011;12845;52.042;6.838;2023-04-15T13:37:09;9.43;;;6.07;;
24745;SDS011;12845;52.042;6.838;2023-04-15T13:39:35;8.10;;;4.90;;
24745;SDS011;12845;52.042;6.838;2023-04-15T13:42:00;6.40;;;4.13;;
24745;SDS011;12845;52.042;6.838;2023-04-15T13:44:26;6.25;;;3.15;;
24745;SDS011;12845;52.042;6.838;2023-04-15T13:46:52;7.30;;;4.72;;
24745;SDS011;12845;52.042;6.838;2023-04-15T13:49:17;5.20;;;2.88;;
24745;SDS011;12845;52.042;6.838;2023-04-15T13:51:43;5.72;;;3.72;;
24745;SDS011;12845;52.042;6.838;2023-04-15T13:54:08;8.10;;;2.88;;
24745;SDS011;12845;52.042;6.838;2023-04-15T13:56:33;7.93;;;4.43;;
24745;SDS011;12845;52.042;6.838;2023-04-15T13:58:59;4.82;;;2.78;;
24745;SDS011;12845;52.042;6.838;2023-04-15T14:01:26;5.72;;;3.03;;
24745;SDS011;12845;52.042;6.838;2023-04-15T14:03:52;5.47;;;2.90;;
24745;SDS011;12845;52.042;6.838;2023-04-15T14:06:17;5.63;;;3.60;;
24745;SDS011;12845;52.042;6.838;2023-04-15T14:08:43;7.22;;;2.92;;
24745;SDS011;12845;52.042;6.838;2023-04-15T14:11:08;5.68;;;3.22;;
24745;SDS011;12845;52.042;6.838;2023-04-15T14:13:34;8.98;;;5.40;;
24745;SDS011;12845;52.042;6.838;2023-04-15T14:16:00;5.60;;;3.45;;
24745;SDS011;12845;52.042;6.838;2023-04-15T14:18:25;6.75;;;3.47;;
24745;SDS011;12845;52.042;6.838;2023-04-15T14:20:51;7.10;;;4.25;;
24745;SDS011;12845;52.042;6.838;2023-04-15T14:23:16;8.32;;;4.28;;
24745;SDS011;12845;52.042;6.838;2023-04-15T14:25:42;5.32;;;3.40;;
24745;SDS011;12845;52.042;6.838;2023-04-15T14:28:07;5.85;;;3.95;;
24745;SDS011;12845;52.042;6.838;2023-04-15T14:30:32;7.10;;;3.38;;
24745;SDS011;12845;52.042;6.838;2023-04-15T14:32:58;4.93;;;3.03;;
24745;SDS011;12845;52.042;6.838;2023-04-15T14:35:24;6.95;;;3.70;;
24745;SDS011;12845;52.042;6.838;2023-04-15T14:37:51;7.88;;;4.15;;
24745;SDS011;12845;52.042;6.838;2023-04-15T14:40:17;5.45;;;3.83;;
24745;SDS011;12845;52.042;6.838;2023-04-15T14:42:43;6.85;;;3.67;;
24745;SDS011;12845;52.042;6.838;2023-04-15T14:45:09;7.57;;;4.25;;
24745;SDS011;12845;52.042;6.838;2023-04-15T14:47:37;8.07;;;3.55;;
24745;SDS011;12845;52.042;6.838;2023-04-15T14:50:03;4.97;;;2.90;;
24745;SDS011;12845;52.042;6.838;2023-04-15T14:52:29;5.90;;;3.42;;